createdAt,value
2019-04-12T00:00:15.821Z,2.70
2019-04-12T00:01:15.851Z,2.20
2019-04-12T00:02:16.061Z,2.20
2019-04-12T00:03:15.916Z,2.40
2019-04-12T00:04:15.862Z,2.40
2019-04-12T00:05:15.876Z,2.20
2019-04-12T00:06:15.884Z,2.60
2019-04-12T00:07:15.899Z,2.60
2019-04-12T00:08:16.243Z,2.40
2019-04-12T00:09:15.952Z,2.40
2019-04-12T00:10:15.925Z,2.40
2019-04-12T00:11:15.937Z,2.30
2019-04-12T00:12:15.949Z,2.50
2019-04-12T00:13:15.956Z,2.40
2019-04-12T00:14:15.965Z,2.20
2019-04-12T00:15:15.990Z,2.40
2019-04-12T00:16:15.985Z,2.40
2019-04-12T00:17:16.240Z,2.60
2019-04-12T00:18:16.052Z,2.40
2019-04-12T00:19:16.163Z,2.40
2019-04-12T00:21:16.243Z,2.50
2019-04-12T00:23:16.807Z,2.30
2019-04-12T00:24:17.204Z,2.60
2019-04-12T00:25:17.370Z,2.50
2019-04-12T00:26:18.476Z,2.50
2019-04-12T00:27:16.781Z,2.40
2019-04-12T00:28:19.108Z,2.40
2019-04-12T00:29:18.016Z,2.40
2019-04-12T00:30:16.128Z,2.40
2019-04-12T00:31:16.150Z,2.40
2019-04-12T00:32:16.179Z,2.40
2019-04-12T00:33:16.373Z,2.80
2019-04-12T00:34:16.273Z,2.30
2019-04-12T00:35:16.180Z,2.60
2019-04-12T00:36:16.336Z,2.50
2019-04-12T00:37:16.460Z,2.40
2019-04-12T00:38:16.215Z,2.40
2019-04-12T00:39:16.221Z,2.60
2019-04-12T00:40:16.723Z,2.30
2019-04-12T00:41:16.258Z,2.40
2019-04-12T00:42:16.511Z,2.40
2019-04-12T00:43:16.261Z,2.60
2019-04-12T00:44:16.266Z,2.10
2019-04-12T00:45:16.280Z,2.40
2019-04-12T00:46:16.287Z,2.60
2019-04-12T00:47:16.298Z,2.60
2019-04-12T00:48:16.306Z,2.40
2019-04-12T00:49:16.323Z,2.20
2019-04-12T00:50:16.336Z,2.50
2019-04-12T00:51:16.340Z,2.60
2019-04-12T00:52:16.403Z,2.30
2019-04-12T00:54:16.373Z,2.40
2019-04-12T00:55:16.418Z,2.50
2019-04-12T00:56:17.156Z,2.30
2019-04-12T00:57:16.492Z,2.50
2019-04-12T00:58:16.913Z,2.70
2019-04-12T00:59:17.380Z,2.50
2019-04-12T01:00:17.900Z,2.30
2019-04-12T01:01:17.027Z,2.70
2019-04-12T01:02:16.452Z,2.60
2019-04-12T01:03:17.103Z,2.50
2019-04-12T01:04:16.748Z,2.60
2019-04-12T01:05:17.202Z,2.50
2019-04-12T01:06:18.118Z,2.50
2019-04-12T01:07:16.983Z,2.60
2019-04-12T01:08:20.837Z,2.50
2019-04-12T01:09:16.726Z,2.50
2019-04-12T01:10:16.544Z,2.80
2019-04-12T01:11:16.540Z,2.90
2019-04-12T01:12:16.555Z,2.70
2019-04-12T01:13:16.563Z,2.60
2019-04-12T01:14:16.571Z,2.40
2019-04-12T01:15:16.586Z,2.60
2019-04-12T01:16:16.624Z,2.50
2019-04-12T01:17:16.814Z,2.50
2019-04-12T01:18:16.765Z,2.60
2019-04-12T01:21:16.858Z,2.80
2019-04-12T01:22:16.660Z,2.60
2019-04-12T01:23:16.665Z,2.40
2019-04-12T01:24:16.670Z,2.70
2019-04-12T01:25:16.776Z,2.80
2019-04-12T01:26:16.695Z,2.60
2019-04-12T01:27:17.455Z,2.70
2019-04-12T01:28:18.094Z,2.70
2019-04-12T01:29:17.996Z,2.60
2019-04-12T01:31:16.761Z,2.50
2019-04-12T01:32:16.766Z,2.80
2019-04-12T01:33:16.782Z,2.40
2019-04-12T01:34:16.782Z,2.40
2019-04-12T01:35:16.786Z,2.50
2019-04-12T01:36:16.801Z,2.50
2019-04-12T01:37:16.807Z,2.50
2019-04-12T01:38:16.901Z,2.40
2019-04-12T01:39:16.833Z,2.50
2019-04-12T01:40:17.099Z,2.40
2019-04-12T01:41:17.043Z,2.50
2019-04-12T01:42:16.858Z,2.60
2019-04-12T01:43:16.884Z,2.50
2019-04-12T01:44:16.882Z,2.80
2019-04-12T01:45:16.891Z,2.40
2019-04-12T01:46:16.898Z,2.70
2019-04-12T01:47:16.916Z,2.40
2019-04-12T01:48:16.918Z,2.60
2019-04-12T01:49:16.926Z,2.50
2019-04-12T01:50:16.940Z,2.60
2019-04-12T01:51:16.954Z,2.60
2019-04-12T01:52:16.957Z,2.30
2019-04-12T01:53:16.969Z,2.50
2019-04-12T01:54:16.981Z,2.70
2019-04-12T01:55:16.998Z,2.50
2019-04-12T01:56:17.123Z,2.50
2019-04-12T01:57:17.117Z,2.80
2019-04-12T01:58:17.020Z,2.70
2019-04-12T01:59:17.029Z,2.60
2019-04-12T02:00:17.046Z,2.60
2019-04-12T02:01:17.053Z,2.50
2019-04-12T02:02:17.070Z,2.70
2019-04-12T02:03:17.072Z,2.50
2019-04-12T02:04:17.087Z,2.60
2019-04-12T02:05:19.210Z,2.70
2019-04-12T02:06:17.113Z,2.40
2019-04-12T02:07:17.109Z,2.40
2019-04-12T02:09:17.358Z,2.50
2019-04-12T02:10:17.184Z,2.60
2019-04-12T02:11:17.860Z,2.60
2019-04-12T02:12:17.807Z,2.90
2019-04-12T02:13:17.168Z,2.70
2019-04-12T02:14:18.337Z,2.90
2019-04-12T02:15:17.197Z,2.40
2019-04-12T02:16:17.199Z,2.60
2019-04-12T02:17:17.209Z,2.70
2019-04-12T02:18:17.218Z,3.00
2019-04-12T02:19:17.237Z,2.80
2019-04-12T02:20:17.275Z,2.80
2019-04-12T02:21:17.240Z,2.80
2019-04-12T02:22:17.250Z,2.70
2019-04-12T02:23:17.259Z,2.90
2019-04-12T02:24:17.410Z,2.60
2019-04-12T02:25:21.479Z,2.80
2019-04-12T02:26:17.290Z,2.70
2019-04-12T02:27:17.325Z,2.80
2019-04-12T02:28:17.318Z,2.90
2019-04-12T02:29:17.329Z,2.60
2019-04-12T02:30:17.341Z,2.70
2019-04-12T02:31:17.341Z,2.90
2019-04-12T02:32:17.366Z,2.70
2019-04-12T02:33:17.421Z,2.80
2019-04-12T02:34:17.524Z,2.80
2019-04-12T02:36:17.493Z,3.00
2019-04-12T02:37:17.403Z,2.70
2019-04-12T02:38:17.416Z,2.90
2019-04-12T02:39:17.430Z,2.70
2019-04-12T02:40:17.441Z,2.90
2019-04-12T02:41:17.445Z,2.80
2019-04-12T02:42:17.452Z,2.60
2019-04-12T02:43:17.463Z,2.90
2019-04-12T02:45:17.539Z,2.80
2019-04-12T02:46:17.646Z,2.90
2019-04-12T02:48:18.125Z,2.90
2019-04-12T02:49:18.245Z,2.90
2019-04-12T02:50:18.290Z,3.00
2019-04-12T02:51:18.285Z,2.60
2019-04-12T02:52:17.573Z,2.60
2019-04-12T02:55:17.589Z,2.90
2019-04-12T02:56:17.595Z,2.50
2019-04-12T02:57:17.920Z,2.60
2019-04-12T02:58:18.166Z,2.80
2019-04-12T02:59:18.092Z,2.80
2019-04-12T03:00:17.635Z,2.60
2019-04-12T03:01:17.643Z,3.00
2019-04-12T03:02:17.699Z,2.60
2019-04-12T03:04:17.675Z,2.70
2019-04-12T03:05:17.684Z,2.90
2019-04-12T03:06:17.692Z,3.20
2019-04-12T03:07:17.708Z,2.70
2019-04-12T03:08:17.721Z,2.50
2019-04-12T03:09:17.724Z,3.10
2019-04-12T03:10:17.737Z,2.80
2019-04-12T03:11:17.743Z,2.80
2019-04-12T03:12:17.747Z,3.10
2019-04-12T03:13:17.761Z,2.90
2019-04-12T03:14:17.764Z,2.90
2019-04-12T03:15:17.785Z,3.10
2019-04-12T03:16:17.793Z,2.90
2019-04-12T03:17:17.798Z,3.40
2019-04-12T03:18:17.814Z,3.50
2019-04-12T03:19:18.209Z,3.00
2019-04-12T03:20:17.837Z,3.00
2019-04-12T03:21:17.845Z,2.80
2019-04-12T03:22:17.850Z,2.70
2019-04-12T03:23:17.860Z,2.90
2019-04-12T03:24:17.865Z,2.80
2019-04-12T03:25:17.884Z,2.90
2019-04-12T03:26:17.887Z,2.70
2019-04-12T03:27:17.893Z,2.90
2019-04-12T03:28:17.906Z,3.00
2019-04-12T03:29:18.015Z,3.20
2019-04-12T03:30:17.936Z,3.00
2019-04-12T03:31:17.953Z,3.00
2019-04-12T03:32:17.955Z,2.70
2019-04-12T03:33:18.331Z,2.90
2019-04-12T03:34:17.973Z,3.30
2019-04-12T03:35:17.974Z,2.90
2019-04-12T03:36:18.075Z,3.10
2019-04-12T03:37:17.999Z,3.20
2019-04-12T03:38:18.008Z,3.30
2019-04-12T03:39:18.019Z,3.00
2019-04-12T03:40:18.021Z,3.40
2019-04-12T03:41:18.184Z,3.40
2019-04-12T03:42:18.437Z,2.90
2019-04-12T03:43:18.759Z,3.10
2019-04-12T03:44:18.065Z,3.00
2019-04-12T03:45:18.075Z,3.10
2019-04-12T03:46:18.086Z,2.70
2019-04-12T03:47:18.140Z,2.90
2019-04-12T03:48:18.111Z,2.90
2019-04-12T03:49:18.140Z,3.00
2019-04-12T03:50:18.121Z,3.00
2019-04-12T03:51:18.132Z,2.80
2019-04-12T03:52:18.152Z,3.40
2019-04-12T03:53:18.152Z,2.90
2019-04-12T03:54:18.163Z,2.80
2019-04-12T03:55:18.168Z,3.00
2019-04-12T03:56:18.315Z,3.00
2019-04-12T03:57:18.252Z,3.00
2019-04-12T03:58:18.200Z,3.50
2019-04-12T03:59:18.876Z,3.40
2019-04-12T04:00:18.583Z,2.90
2019-04-12T04:01:18.238Z,2.90
2019-04-12T04:02:18.257Z,3.00
2019-04-12T04:03:18.289Z,3.10
2019-04-12T04:04:18.281Z,3.20
2019-04-12T04:05:18.420Z,2.90
2019-04-12T04:06:20.620Z,3.10
2019-04-12T04:07:18.286Z,3.10
2019-04-12T04:08:18.304Z,3.20
2019-04-12T04:09:18.327Z,3.10
2019-04-12T04:10:18.320Z,2.80
2019-04-12T04:11:18.428Z,3.00
2019-04-12T04:12:18.408Z,3.10
2019-04-12T04:13:18.344Z,2.90
2019-04-12T04:14:18.367Z,2.80
2019-04-12T04:15:18.365Z,3.10
2019-04-12T04:16:18.388Z,2.90
2019-04-12T04:18:18.659Z,2.90
2019-04-12T04:19:18.848Z,3.40
2019-04-12T04:20:20.483Z,3.40
2019-04-12T04:21:18.428Z,3.30
2019-04-12T04:22:18.437Z,3.00
2019-04-12T04:23:18.452Z,3.20
2019-04-12T04:24:18.465Z,3.20
2019-04-12T04:25:18.462Z,3.40
2019-04-12T04:26:23.531Z,3.20
2019-04-12T04:28:18.489Z,3.20
2019-04-12T04:29:18.684Z,3.40
2019-04-12T04:30:19.182Z,3.40
2019-04-12T04:31:18.543Z,3.20
2019-04-12T04:32:18.542Z,3.40
2019-04-12T04:33:18.790Z,3.20
2019-04-12T04:34:18.556Z,3.30
2019-04-12T04:35:18.625Z,3.30
2019-04-12T04:38:18.633Z,3.30
2019-04-12T04:39:18.624Z,3.30
2019-04-12T04:41:19.995Z,3.30
2019-04-12T04:42:18.643Z,3.40
2019-04-12T04:43:18.642Z,3.50
2019-04-12T04:44:18.776Z,3.60
2019-04-12T04:45:18.674Z,3.30
2019-04-12T04:46:18.672Z,3.50
2019-04-12T04:47:18.801Z,3.30
2019-04-12T04:48:19.189Z,3.30
2019-04-12T04:49:19.426Z,3.50
2019-04-12T04:50:19.321Z,3.20
2019-04-12T04:51:19.032Z,3.40
2019-04-12T04:52:18.726Z,3.40
2019-04-12T04:53:18.824Z,3.30
2019-04-12T04:55:18.764Z,3.70
2019-04-12T04:56:18.794Z,3.10
2019-04-12T04:57:18.928Z,3.40
2019-04-12T04:58:19.896Z,3.40
2019-04-12T05:00:20.086Z,3.80
2019-04-12T05:01:18.813Z,3.40
2019-04-12T05:02:19.518Z,3.30
2019-04-12T05:03:18.892Z,3.30
2019-04-12T05:04:18.880Z,3.50
2019-04-12T05:05:18.851Z,3.60
2019-04-12T05:06:18.870Z,3.40
2019-04-12T05:07:18.872Z,3.60
2019-04-12T05:08:19.457Z,3.80
2019-04-12T05:09:18.891Z,3.30
2019-04-12T05:11:19.539Z,3.60
2019-04-12T05:12:18.916Z,3.60
2019-04-12T05:13:18.982Z,4.00
2019-04-12T05:14:18.938Z,3.70
2019-04-12T05:15:18.947Z,3.60
2019-04-12T05:16:18.958Z,4.10
2019-04-12T05:17:19.414Z,3.60
2019-04-12T05:18:18.981Z,3.80
2019-04-12T05:19:19.114Z,3.60
2019-04-12T05:20:19.031Z,3.60
2019-04-12T05:21:19.025Z,3.80
2019-04-12T05:22:19.021Z,4.30
2019-04-12T05:23:19.038Z,3.50
2019-04-12T05:24:19.045Z,3.70
2019-04-12T05:25:19.383Z,4.00
2019-04-12T05:26:19.054Z,3.50
2019-04-12T05:27:19.112Z,3.70
2019-04-12T05:28:19.078Z,3.70
2019-04-12T05:29:19.091Z,3.50
2019-04-12T05:30:19.107Z,4.30
2019-04-12T05:31:19.112Z,3.80
2019-04-12T05:32:19.545Z,3.80
2019-04-12T05:33:19.131Z,3.50
2019-04-12T05:34:19.178Z,3.60
2019-04-12T05:35:19.153Z,3.90
2019-04-12T05:36:19.150Z,3.50
2019-04-12T05:37:19.163Z,3.90
2019-04-12T05:38:19.171Z,3.30
2019-04-12T05:39:19.175Z,4.20
2019-04-12T05:40:19.246Z,3.70
2019-04-12T05:41:19.276Z,4.10
2019-04-12T05:42:19.224Z,3.80
2019-04-12T05:43:19.341Z,3.80
2019-04-12T05:44:19.227Z,3.70
2019-04-12T05:45:19.233Z,3.60
2019-04-12T05:46:19.243Z,3.80
2019-04-12T05:47:19.255Z,3.70
2019-04-12T05:48:19.274Z,3.90
2019-04-12T05:49:19.273Z,3.90
2019-04-12T05:50:19.293Z,4.20
2019-04-12T05:51:22.725Z,4.40
2019-04-12T05:52:20.612Z,4.10
2019-04-12T05:53:19.309Z,3.90
2019-04-12T05:54:19.340Z,3.60
2019-04-12T05:55:19.339Z,3.40
2019-04-12T05:56:19.337Z,3.80
2019-04-12T05:57:19.358Z,4.00
2019-04-12T05:58:19.366Z,4.00
2019-04-12T05:59:19.387Z,3.70
2019-04-12T06:00:19.384Z,3.70
2019-04-12T06:01:19.396Z,4.00
2019-04-12T06:02:19.405Z,4.00
2019-04-12T06:03:19.406Z,3.80
2019-04-12T06:04:19.418Z,4.30
2019-04-12T06:05:19.435Z,4.00
2019-04-12T06:06:19.438Z,4.80
2019-04-12T06:07:19.454Z,3.80
2019-04-12T06:08:19.467Z,3.90
2019-04-12T06:09:19.466Z,4.20
2019-04-12T06:10:19.474Z,3.80
2019-04-12T06:11:19.486Z,4.10
2019-04-12T06:12:19.494Z,4.60
2019-04-12T06:13:19.504Z,4.10
2019-04-12T06:14:19.515Z,4.20
2019-04-12T06:15:19.521Z,3.70
2019-04-12T06:16:19.536Z,4.10
2019-04-12T06:17:19.556Z,4.30
2019-04-12T06:18:19.691Z,6.70
2019-04-12T06:19:19.571Z,4.70
2019-04-12T06:20:19.578Z,4.60
2019-04-12T06:21:19.580Z,4.70
2019-04-12T06:22:19.595Z,5.10
2019-04-12T06:23:19.605Z,4.60
2019-04-12T06:24:19.788Z,4.10
2019-04-12T06:25:19.927Z,4.20
2019-04-12T06:26:19.646Z,4.00
2019-04-12T06:27:19.641Z,4.60
2019-04-12T06:28:19.653Z,4.60
2019-04-12T06:30:19.676Z,4.80
2019-04-12T06:31:19.690Z,10.20
2019-04-12T06:32:19.710Z,4.50
2019-04-12T06:33:19.723Z,5.00
2019-04-12T06:34:19.717Z,4.10
2019-04-12T06:35:19.721Z,4.70
2019-04-12T06:36:19.728Z,4.90
2019-04-12T06:37:19.744Z,8.60
2019-04-12T06:38:19.756Z,5.00
2019-04-12T06:39:19.766Z,4.90
2019-04-12T06:40:19.774Z,4.80
2019-04-12T06:41:19.786Z,4.70
2019-04-12T06:42:19.793Z,4.70
2019-04-12T06:43:19.803Z,5.20
2019-04-12T06:44:19.813Z,5.10
2019-04-12T06:45:19.816Z,5.10
2019-04-12T06:46:19.829Z,5.00
2019-04-12T06:47:19.853Z,5.00
2019-04-12T06:48:19.846Z,4.60
2019-04-12T06:49:19.856Z,4.90
2019-04-12T06:50:19.881Z,5.00
2019-04-12T06:51:19.876Z,4.90
2019-04-12T06:52:19.887Z,5.00
2019-04-12T06:53:19.954Z,5.10
2019-04-12T06:54:19.921Z,4.80
2019-04-12T06:55:19.921Z,5.20
2019-04-12T06:56:19.928Z,5.00
2019-04-12T06:57:23.157Z,5.10
2019-04-12T06:58:19.973Z,5.30
2019-04-12T06:59:19.976Z,5.10
2019-04-12T07:00:19.983Z,4.70
2019-04-12T07:01:20.001Z,5.70
2019-04-12T07:02:19.992Z,5.30
2019-04-12T07:03:20.003Z,5.40
2019-04-12T07:04:20.018Z,5.30
2019-04-12T07:05:20.021Z,5.50
2019-04-12T07:06:20.036Z,5.50
2019-04-12T07:07:20.050Z,5.00
2019-04-12T07:08:20.051Z,5.00
2019-04-12T07:09:20.059Z,5.20
2019-04-12T07:10:20.072Z,5.40
2019-04-12T07:11:20.077Z,5.40
2019-04-12T07:12:20.090Z,5.50
2019-04-12T07:13:20.108Z,5.70
2019-04-12T07:14:20.109Z,5.50
2019-04-12T07:15:20.125Z,5.40
2019-04-12T07:16:20.133Z,5.20
2019-04-12T07:17:20.194Z,5.50
2019-04-12T07:18:20.155Z,5.70
2019-04-12T07:19:20.162Z,5.80
2019-04-12T07:20:20.170Z,5.90
2019-04-12T07:21:20.182Z,5.50
2019-04-12T07:22:20.475Z,6.10
2019-04-12T07:23:20.202Z,6.30
2019-04-12T07:24:20.207Z,5.20
2019-04-12T07:25:20.228Z,5.80
2019-04-12T07:26:20.236Z,5.60
2019-04-12T07:27:20.258Z,5.70
2019-04-12T07:28:20.250Z,5.70
2019-04-12T07:29:20.269Z,6.30
2019-04-12T07:30:20.295Z,6.00
2019-04-12T07:31:20.583Z,6.10
2019-04-12T07:32:20.591Z,6.20
2019-04-12T07:33:20.303Z,5.60
2019-04-12T07:34:20.309Z,5.80
2019-04-12T07:35:20.328Z,5.90
2019-04-12T07:36:20.332Z,6.20
2019-04-12T07:37:20.363Z,5.90
2019-04-12T07:38:20.358Z,6.30
2019-04-12T07:39:20.362Z,5.40
2019-04-12T07:40:20.376Z,6.70
2019-04-12T07:41:20.407Z,6.40
2019-04-12T07:42:20.397Z,6.90
2019-04-12T07:43:20.410Z,6.10
2019-04-12T07:44:20.421Z,6.50
2019-04-12T07:45:20.424Z,5.90
2019-04-12T07:46:20.438Z,6.20
2019-04-12T07:47:20.453Z,6.70
2019-04-12T07:48:20.469Z,6.50
2019-04-12T07:49:20.470Z,7.00
2019-04-12T07:50:20.486Z,6.40
2019-04-12T07:51:20.491Z,6.30
2019-04-12T07:52:20.513Z,6.50
2019-04-12T07:53:20.515Z,6.40
2019-04-12T07:54:20.637Z,6.60
2019-04-12T07:55:20.554Z,7.10
2019-04-12T07:56:20.540Z,6.70
2019-04-12T07:57:20.561Z,6.50
2019-04-12T07:58:20.578Z,6.30
2019-04-12T07:59:20.583Z,6.40
2019-04-12T08:00:20.581Z,6.70
2019-04-12T08:01:20.595Z,7.00
2019-04-12T08:02:20.603Z,6.60
2019-04-12T08:03:20.616Z,6.80
2019-04-12T08:04:20.638Z,6.80
2019-04-12T08:05:20.699Z,6.00
2019-04-12T08:06:20.662Z,6.40
2019-04-12T08:07:20.665Z,6.00
2019-04-12T08:08:20.672Z,5.80
2019-04-12T08:09:20.685Z,6.20
2019-04-12T08:10:20.731Z,6.70
2019-04-12T08:11:20.701Z,6.30
2019-04-12T08:12:20.717Z,6.50
2019-04-12T08:13:20.739Z,6.70
2019-04-12T08:14:20.882Z,6.80
2019-04-12T08:15:20.743Z,6.40
2019-04-12T08:16:20.754Z,6.60
2019-04-12T08:17:20.759Z,7.10
2019-04-12T08:18:20.773Z,6.60
2019-04-12T08:19:20.788Z,6.30
2019-04-12T08:20:20.801Z,6.30
2019-04-12T08:21:20.830Z,6.40
2019-04-12T08:22:20.874Z,6.30
2019-04-12T08:23:20.825Z,6.40
2019-04-12T08:24:20.840Z,6.20
2019-04-12T08:25:20.858Z,6.20
2019-04-12T08:26:20.867Z,6.70
2019-04-12T08:27:20.890Z,6.20
2019-04-12T08:28:20.878Z,6.30
2019-04-12T08:29:22.193Z,6.00
2019-04-12T08:30:20.923Z,5.30
2019-04-12T08:31:20.911Z,5.60
2019-04-12T08:32:20.921Z,5.60
2019-04-12T08:33:20.933Z,5.40
2019-04-12T08:34:20.946Z,5.90
2019-04-12T08:35:20.958Z,5.50
2019-04-12T08:36:20.965Z,6.10
2019-04-12T08:37:20.973Z,5.80
2019-04-12T08:38:20.988Z,5.80
2019-04-12T08:39:21.020Z,5.60
2019-04-12T08:40:21.032Z,6.50
2019-04-12T08:41:21.021Z,5.90
2019-04-12T08:42:21.035Z,6.10
2019-04-12T08:43:21.040Z,5.40
2019-04-12T08:44:21.053Z,5.10
2019-04-12T08:45:21.064Z,5.00
2019-04-12T08:46:21.086Z,4.80
2019-04-12T08:47:21.107Z,4.80
2019-04-12T08:48:21.130Z,4.80
2019-04-12T08:49:21.134Z,6.10
2019-04-12T08:50:21.143Z,5.10
2019-04-12T08:51:22.921Z,4.70
2019-04-12T08:52:21.144Z,4.50
2019-04-12T08:53:21.150Z,4.80
2019-04-12T08:54:21.200Z,4.60
2019-04-12T08:55:21.205Z,4.60
2019-04-12T08:56:21.235Z,5.00
2019-04-12T08:57:21.225Z,4.70
2019-04-12T08:58:21.213Z,4.40
2019-04-12T08:59:21.236Z,5.00
2019-04-12T09:00:21.266Z,4.70
2019-04-12T09:01:21.606Z,4.40
2019-04-12T09:02:21.248Z,4.00
2019-04-12T09:03:21.266Z,4.30
2019-04-12T09:04:21.287Z,4.50
2019-04-12T09:05:31.975Z,4.60
2019-04-12T09:06:21.309Z,4.30
2019-04-12T09:07:21.403Z,4.60
2019-04-12T09:08:21.544Z,4.50
2019-04-12T09:09:21.446Z,5.30
2019-04-12T09:10:21.350Z,4.90
2019-04-12T09:11:21.465Z,4.50
2019-04-12T09:12:21.357Z,4.40
2019-04-12T09:13:21.456Z,4.40
2019-04-12T09:14:21.544Z,5.00
2019-04-12T09:15:21.437Z,4.80
2019-04-12T09:16:21.441Z,5.00
2019-04-12T09:17:21.683Z,5.10
2019-04-12T09:18:21.440Z,4.90
2019-04-12T09:19:21.469Z,5.00
2019-04-12T09:20:21.460Z,5.20
2019-04-12T09:21:21.534Z,5.20
2019-04-12T09:22:21.577Z,5.40
2019-04-12T09:23:21.850Z,5.30
2019-04-12T09:24:21.660Z,8.10
2019-04-12T09:25:21.543Z,5.80
2019-04-12T09:26:21.559Z,6.60
2019-04-12T09:27:21.674Z,5.30
2019-04-12T09:28:25.161Z,5.20
2019-04-12T09:29:21.534Z,5.30
2019-04-12T09:30:21.552Z,5.40
2019-04-12T09:31:21.616Z,5.80
2019-04-12T09:32:21.681Z,5.20
2019-04-12T09:33:21.631Z,5.40
2019-04-12T09:34:21.593Z,5.80
2019-04-12T09:35:21.637Z,4.60
2019-04-12T09:36:21.617Z,5.20
2019-04-12T09:37:21.624Z,4.60
2019-04-12T09:38:21.641Z,4.40
2019-04-12T09:39:21.849Z,19.60
2019-04-12T09:40:21.653Z,18.30
2019-04-12T09:41:21.678Z,20.00
2019-04-12T09:42:21.683Z,15.60
2019-04-12T09:43:21.691Z,14.10
2019-04-12T09:44:21.693Z,10.10
2019-04-12T09:45:21.703Z,4.70
2019-04-12T09:46:21.727Z,4.40
2019-04-12T09:47:21.793Z,4.70
2019-04-12T09:48:21.740Z,4.20
2019-04-12T09:49:21.759Z,3.90
2019-04-12T09:50:21.764Z,3.70
2019-04-12T09:51:21.771Z,4.00
2019-04-12T09:52:21.794Z,3.90
2019-04-12T09:53:21.816Z,4.40
2019-04-12T09:54:21.812Z,3.90
2019-04-12T09:55:21.821Z,4.50
2019-04-12T09:56:21.834Z,4.10
2019-04-12T09:57:21.854Z,4.80
2019-04-12T09:58:21.867Z,4.40
2019-04-12T09:59:21.874Z,4.00
2019-04-12T10:00:21.888Z,4.10
2019-04-12T10:01:21.890Z,4.00
2019-04-12T10:02:21.907Z,3.80
2019-04-12T10:03:21.913Z,3.80
2019-04-12T10:04:21.926Z,3.40
2019-04-12T10:05:21.928Z,4.10
2019-04-12T10:06:21.938Z,3.70
2019-04-12T10:07:21.963Z,3.60
2019-04-12T10:08:22.026Z,3.70
2019-04-12T10:09:28.002Z,4.30
2019-04-12T10:10:22.404Z,4.10
2019-04-12T10:11:22.005Z,4.00
2019-04-12T10:12:22.011Z,4.10
2019-04-12T10:13:22.024Z,4.50
2019-04-12T10:14:22.051Z,4.20
2019-04-12T10:15:22.043Z,4.20
2019-04-12T10:16:22.061Z,4.40
2019-04-12T10:17:22.076Z,4.30
2019-04-12T10:18:22.083Z,3.80
2019-04-12T10:19:22.201Z,4.00
2019-04-12T10:20:22.202Z,3.70
2019-04-12T10:21:22.122Z,3.70
2019-04-12T10:22:22.134Z,4.00
2019-04-12T10:23:22.144Z,4.60
2019-04-12T10:24:22.153Z,4.20
2019-04-12T10:26:22.184Z,8.90
2019-04-12T10:27:22.186Z,6.20
2019-04-12T10:28:22.310Z,28.90
2019-04-12T10:29:22.354Z,5.60
2019-04-12T10:31:23.282Z,4.80
2019-04-12T10:32:22.372Z,3.90
2019-04-12T10:33:23.158Z,4.40
2019-04-12T10:34:25.431Z,4.30
2019-04-12T10:35:22.292Z,5.50
2019-04-12T10:36:23.077Z,6.70
2019-04-12T10:37:22.316Z,5.50
2019-04-12T10:38:22.953Z,33.50
2019-04-12T10:39:23.232Z,18.40
2019-04-12T10:40:22.332Z,13.20
2019-04-12T10:41:23.243Z,5.70
2019-04-12T10:42:22.359Z,4.60
2019-04-12T10:43:22.524Z,4.20
2019-04-12T10:44:22.434Z,4.10
2019-04-12T10:45:22.388Z,4.50
2019-04-12T10:46:22.416Z,4.60
2019-04-12T10:47:23.659Z,4.20
2019-04-12T10:48:23.367Z,4.40
2019-04-12T10:49:23.557Z,4.40
2019-04-12T10:51:23.517Z,4.50
2019-04-12T10:52:23.295Z,4.20
2019-04-12T10:53:23.019Z,3.60
2019-04-12T10:54:23.861Z,3.20
2019-04-12T10:55:23.157Z,3.20
2019-04-12T10:56:23.673Z,3.40
2019-04-12T10:57:23.966Z,3.40
2019-04-12T10:58:23.312Z,3.80
2019-04-12T10:59:22.555Z,4.40
2019-04-12T11:00:22.591Z,3.80
2019-04-12T11:01:22.572Z,3.80
2019-04-12T11:02:22.584Z,3.90
2019-04-12T11:03:22.595Z,3.80
2019-04-12T11:04:22.613Z,3.80
2019-04-12T11:05:22.634Z,3.90
2019-04-12T11:06:30.130Z,3.70
2019-04-12T11:07:22.648Z,3.60
2019-04-12T11:08:22.665Z,4.30
2019-04-12T11:09:22.766Z,3.60
2019-04-12T11:10:22.680Z,3.40
2019-04-12T11:11:22.693Z,3.70
2019-04-12T11:12:22.694Z,3.90
2019-04-12T11:13:22.722Z,4.30
2019-04-12T11:14:22.722Z,3.90
2019-04-12T11:15:22.733Z,4.10
2019-04-12T11:16:22.739Z,4.20
2019-04-12T11:17:22.775Z,4.10
2019-04-12T11:18:22.772Z,4.10
2019-04-12T11:20:22.832Z,4.40
2019-04-12T11:21:23.030Z,4.30
2019-04-12T11:22:22.826Z,3.90
2019-04-12T11:23:22.822Z,4.20
2019-04-12T11:24:22.836Z,4.10
2019-04-12T11:25:29.063Z,3.40
2019-04-12T11:26:22.939Z,3.50
2019-04-12T11:27:22.873Z,3.60
2019-04-12T11:28:22.885Z,3.50
2019-04-12T11:29:22.898Z,3.70
2019-04-12T11:30:22.905Z,3.80
2019-04-12T11:31:22.923Z,3.50
2019-04-12T11:32:22.926Z,4.00
2019-04-12T11:33:22.931Z,3.80
2019-04-12T11:34:22.956Z,3.70
2019-04-12T11:35:22.949Z,3.70
2019-04-12T11:36:22.963Z,3.90
2019-04-12T11:37:23.015Z,3.60
2019-04-12T11:38:23.005Z,3.60
2019-04-12T11:39:22.995Z,4.00
2019-04-12T11:40:23.022Z,3.50
2019-04-12T11:41:23.016Z,5.50
2019-04-12T11:42:23.040Z,3.40
2019-04-12T11:43:23.193Z,3.30
2019-04-12T11:44:23.054Z,4.30
2019-04-12T11:45:23.067Z,3.20
2019-04-12T11:46:23.085Z,3.10
2019-04-12T11:47:23.101Z,3.30
2019-04-12T11:48:23.119Z,3.00
2019-04-12T11:49:23.116Z,3.10
2019-04-12T11:50:23.123Z,3.40
2019-04-12T11:51:23.140Z,3.40
2019-04-12T11:52:23.147Z,2.80
2019-04-12T11:53:23.173Z,3.20
2019-04-12T11:54:23.162Z,3.30
2019-04-12T11:55:23.194Z,3.30
2019-04-12T11:56:23.194Z,3.90
2019-04-12T11:57:23.202Z,3.70
2019-04-12T11:58:36.609Z,3.70
2019-04-12T11:59:29.370Z,3.20
2019-04-12T12:00:23.233Z,3.40
2019-04-12T12:01:23.256Z,3.90
2019-04-12T12:02:23.265Z,3.50
2019-04-12T12:03:23.266Z,3.60
2019-04-12T12:04:23.287Z,3.30
2019-04-12T12:05:23.283Z,3.50
2019-04-12T12:06:23.304Z,3.40
2019-04-12T12:07:23.995Z,3.10
2019-04-12T12:08:24.254Z,3.20
2019-04-12T12:09:23.331Z,3.00
2019-04-12T12:10:23.350Z,3.40
2019-04-12T12:11:23.350Z,2.80
2019-04-12T12:12:23.366Z,3.00
2019-04-12T12:13:23.373Z,4.30
2019-04-12T12:14:23.401Z,3.50
2019-04-12T12:15:23.400Z,3.10
2019-04-12T12:16:23.405Z,3.10
2019-04-12T12:17:23.416Z,3.10
2019-04-12T12:18:23.538Z,3.60
2019-04-12T12:19:23.471Z,2.70
2019-04-12T12:20:23.499Z,2.60
2019-04-12T12:21:23.472Z,3.30
2019-04-12T12:22:23.476Z,4.10
2019-04-12T12:23:23.503Z,3.40
2019-04-12T12:24:23.503Z,3.60
2019-04-12T12:25:23.511Z,3.60
2019-04-12T12:26:23.521Z,3.40
2019-04-12T12:27:23.532Z,4.10
2019-04-12T12:28:23.545Z,3.70
2019-04-12T12:29:23.569Z,3.60
2019-04-12T12:30:23.565Z,3.90
2019-04-12T12:31:23.583Z,4.30
2019-04-12T12:32:23.593Z,3.50
2019-04-12T12:33:23.599Z,4.20
2019-04-12T12:34:23.609Z,3.40
2019-04-12T12:35:23.626Z,3.20
2019-04-12T12:36:23.639Z,3.70
2019-04-12T12:37:23.661Z,3.30
2019-04-12T12:38:23.671Z,3.50
2019-04-12T12:39:23.677Z,4.50
2019-04-12T12:40:23.685Z,4.20
2019-04-12T12:41:23.695Z,3.50
2019-04-12T12:42:24.295Z,3.80
2019-04-12T12:43:23.752Z,3.20
2019-04-12T12:44:23.730Z,3.70
2019-04-12T12:45:23.743Z,3.60
2019-04-12T12:46:23.763Z,4.10
2019-04-12T12:47:23.766Z,5.10
2019-04-12T12:48:23.799Z,3.80
2019-04-12T12:49:24.020Z,3.20
2019-04-12T12:50:23.798Z,3.30
2019-04-12T12:51:24.122Z,3.40
2019-04-12T12:52:23.822Z,3.70
2019-04-12T12:53:23.839Z,3.70
2019-04-12T12:54:23.848Z,3.40
2019-04-12T12:55:23.859Z,4.30
2019-04-12T12:56:23.878Z,4.10
2019-04-12T12:57:23.935Z,3.70
2019-04-12T12:58:23.906Z,4.40
2019-04-12T12:59:23.901Z,4.50
2019-04-12T13:00:23.926Z,4.30
2019-04-12T13:01:23.926Z,4.30
2019-04-12T13:02:23.934Z,3.60
2019-04-12T13:03:23.952Z,3.20
2019-04-12T13:04:23.956Z,3.40
2019-04-12T13:05:23.965Z,3.50
2019-04-12T13:06:23.983Z,3.50
2019-04-12T13:07:23.991Z,3.40
2019-04-12T13:08:24.024Z,3.70
2019-04-12T13:09:24.112Z,3.50
2019-04-12T13:10:24.063Z,3.40
2019-04-12T13:11:24.039Z,3.70
2019-04-12T13:12:24.043Z,4.00
2019-04-12T13:13:24.063Z,3.90
2019-04-12T13:14:24.086Z,5.60
2019-04-12T13:15:24.129Z,3.70
2019-04-12T13:16:24.112Z,3.90
2019-04-12T13:17:24.104Z,6.20
2019-04-12T13:18:24.117Z,4.00
2019-04-12T13:19:24.126Z,3.90
2019-04-12T13:20:24.246Z,3.90
2019-04-12T13:21:24.149Z,3.60
2019-04-12T13:22:24.162Z,3.70
2019-04-12T13:23:24.176Z,4.00
2019-04-12T13:24:24.190Z,3.90
2019-04-12T13:25:24.191Z,3.50
2019-04-12T13:26:24.205Z,3.40
2019-04-12T13:27:24.216Z,3.60
2019-04-12T13:28:24.233Z,3.80
2019-04-12T13:29:24.257Z,3.70
2019-04-12T13:30:24.255Z,3.80
2019-04-12T13:31:24.262Z,5.60
2019-04-12T13:32:24.275Z,5.40
2019-04-12T13:33:24.290Z,5.10
2019-04-12T13:34:24.298Z,3.80
2019-04-12T13:35:24.310Z,4.00
2019-04-12T13:36:24.338Z,3.90
2019-04-12T13:37:26.121Z,3.40
2019-04-12T13:38:24.381Z,3.60
2019-04-12T13:39:24.359Z,3.60
2019-04-12T13:40:24.369Z,3.70
2019-04-12T13:41:24.380Z,3.70
2019-04-12T13:42:24.395Z,3.50
2019-04-12T13:43:24.408Z,3.80
2019-04-12T13:44:24.412Z,3.60